Time;durP1;ratioP1;P1;durP2;ratioP2;P2;SDS_P1;SDS_P2;PMS_P1;PMS_P2;Temp;Humidity;BMP_temperature;BMP_pressure;BME280_temperature;BME280_humidity;BME280_pressure;Samples;Min_cycle;Max_cycle;Signal;HPM_P1;HPM_P2
2021/12/15 00:01:46;;;;;;;18.27;6.72;;;;;;;7.40;100.00;102485.72;6249071;28;20401;-76
2021/12/15 00:04:50;;;;;;;15.88;6.60;;;;;;;7.41;100.00;102483.13;6249025;28;20424;-76
2021/12/15 00:07:55;;;;;;;21.00;7.45;;;;;;;7.42;100.00;102489.22;6249231;28;20057;-76
2021/12/15 00:10:56;;;;;;;16.90;5.35;;;;;;;7.41;100.00;102484.88;6248615;28;20045;-77
2021/12/15 00:13:58;;;;;;;19.30;6.03;;;;;;;7.42;100.00;102483.97;6253722;28;20045;-76
2021/12/15 00:17:01;;;;;;;15.98;5.05;;;;;;;7.39;100.00;102479.63;6259791;28;20416;-76
2021/12/15 00:20:04;;;;;;;18.52;7.80;;;;;;;7.42;100.00;102479.59;6262677;28;20041;-76
2021/12/15 00:23:06;;;;;;;18.67;5.95;;;;;;;7.41;100.00;102484.88;6273814;28;20048;-76
2021/12/15 00:26:07;;;;;;;18.67;6.25;;;;;;;7.42;100.00;102484.84;6273509;28;20052;-76
2021/12/15 00:29:09;;;;;;;14.75;5.90;;;;;;;7.43;100.00;102485.69;6273864;28;20048;-76
2021/12/15 00:32:11;;;;;;;22.23;7.43;;;;;;;7.43;100.00;102480.47;6265395;28;20046;-76
2021/12/15 00:35:13;;;;;;;22.00;5.65;;;;;;;7.44;100.00;102487.44;6248558;28;20057;-77
2021/12/15 00:38:15;;;;;;;25.02;7.00;;;;;;;7.44;100.00;102480.44;6248717;28;20049;-76
2021/12/15 00:41:16;;;;;;;21.70;7.32;;;;;;;7.47;100.00;102477.78;6248191;28;20508;-76
2021/12/15 00:44:18;;;;;;;13.13;6.43;;;;;;;7.46;100.00;102483.91;6248379;28;20413;-76
2021/12/15 00:47:20;;;;;;;16.33;5.15;;;;;;;7.48;100.00;102495.22;6248243;28;20049;-76
2021/12/15 00:50:24;;;;;;;15.77;7.00;;;;;;;7.50;100.00;102485.63;6248313;28;20072;-76
2021/12/15 00:53:26;;;;;;;19.02;6.55;;;;;;;7.49;100.00;102478.63;6248084;28;20054;-76
2021/12/15 00:56:27;;;;;;;15.75;6.30;;;;;;;7.49;100.00;102480.38;6248320;28;20049;-76
2021/12/15 00:59:29;;;;;;;12.50;5.45;;;;;;;7.49;100.00;102478.63;6247945;28;20045;-76
2021/12/15 01:02:31;;;;;;;16.80;7.70;;;;;;;7.49;100.00;102483.00;6247347;28;20037;-76
2021/12/15 01:05:36;;;;;;;18.25;6.82;;;;;;;7.50;100.00;102477.78;6247933;28;20225;-77
2021/12/15 01:08:44;;;;;;;16.83;5.38;;;;;;;7.50;100.00;102476.91;6248109;28;20051;-76
2021/12/15 01:12:09;;;;;;;14.10;6.53;;;;;;;7.50;100.00;102484.75;6247489;28;20062;-76
2021/12/15 01:21:53;;;;;;;20.27;6.10;;;;;;;7.51;100.00;102482.09;6247001;28;20124;-76
2021/12/15 01:24:59;;;;;;;17.38;6.20;;;;;;;7.51;100.00;102484.72;6247277;28;20045;-76
2021/12/15 01:28:01;;;;;;;20.50;6.80;;;;;;;7.54;100.00;102486.41;6247603;28;20521;-76
2021/12/15 01:31:05;;;;;;;22.23;7.55;;;;;;;7.53;100.00;102490.78;6247115;28;20056;-76
2021/12/15 01:34:08;;;;;;;23.77;6.93;;;;;;;7.54;100.00;102499.50;6247000;28;20054;-77
2021/12/15 01:37:09;;;;;;;17.02;6.38;;;;;;;7.56;100.00;102489.91;6247184;28;20050;-76
2021/12/15 01:40:19;;;;;;;16.92;7.05;;;;;;;7.58;100.00;102498.56;6246903;28;20047;-76
2021/12/15 01:43:33;;;;;;;16.15;6.65;;;;;;;7.59;100.00;102503.81;6247218;28;20056;-76
2021/12/15 01:46:55;;;;;;;24.42;6.72;;;;;;;7.62;100.00;102497.66;6247138;28;20083;-77
2021/12/15 01:49:58;;;;;;;15.48;6.53;;;;;;;7.65;100.00;102489.78;6256821;28;20049;-76
2021/12/15 01:53:00;;;;;;;13.15;7.10;;;;;;;7.63;100.00;102502.88;6260553;28;20052;-77
2021/12/15 01:56:04;;;;;;;24.83;7.40;;;;;;;7.64;100.00;102506.38;6271632;28;20045;-77
2021/12/15 01:59:07;;;;;;;14.88;6.50;;;;;;;7.64;100.00;102501.13;6271850;28;20060;-76
2021/12/15 02:02:08;;;;;;;18.23;6.18;;;;;;;7.66;100.00;102504.59;6264370;28;20049;-76
2021/12/15 02:05:13;;;;;;;14.07;5.50;;;;;;;7.67;100.00;102502.84;6247020;28;20053;-76
2021/12/15 02:08:14;;;;;;;17.75;6.75;;;;;;;7.67;100.00;102503.69;6246494;28;20057;-76
2021/12/15 02:11:17;;;;;;;16.20;6.90;;;;;;;7.67;100.00;102501.06;6246814;28;20053;-76
2021/12/15 02:14:18;;;;;;;16.98;6.28;;;;;;;7.68;100.00;102500.22;6253182;28;20052;-76
2021/12/15 02:17:20;;;;;;;16.50;6.25;;;;;;;7.69;100.00;102498.47;6262921;28;20069;-76
2021/12/15 02:20:28;;;;;;;18.67;6.13;;;;;;;7.69;100.00;102498.47;6254425;28;20049;-77
2021/12/15 02:23:39;;;;;;;17.35;6.90;;;;;;;7.69;100.00;102504.56;6246465;28;20042;-76
2021/12/15 02:26:45;;;;;;;25.30;6.75;;;;;;;7.69;100.00;102501.94;6246654;28;20493;-76
2021/12/15 02:29:49;;;;;;;19.08;5.70;;;;;;;7.69;100.00;102491.47;6246240;28;20049;-76
2021/12/15 02:33:02;;;;;;;16.00;7.00;;;;;;;7.70;100.00;102487.09;6246351;28;20073;-76
2021/12/15 02:39:24;;;;;;;20.92;6.75;;;;;;;7.73;100.00;102497.53;6251518;28;20049;-76
2021/12/15 02:42:31;;;;;;;15.18;6.82;;;;;;;7.76;100.00;102497.47;6251218;28;20050;-77
2021/12/15 02:45:33;;;;;;;22.35;7.88;;;;;;;7.77;100.00;102494.84;6251177;28;20132;-76
2021/12/15 02:48:34;;;;;;;14.75;6.32;;;;;;;7.77;100.00;102504.47;6251447;28;20049;-76
2021/12/15 02:51:39;;;;;;;21.05;6.53;;;;;;;7.82;100.00;102498.28;6251041;28;20690;-76
2021/12/15 02:54:40;;;;;;;20.05;8.15;;;;;;;7.83;100.00;102493.91;6250823;28;20056;-76
2021/12/15 02:57:42;;;;;;;14.27;6.40;;;;;;;7.82;100.00;102487.81;6251048;28;20570;-76
2021/12/15 03:00:50;;;;;;;18.70;6.40;;;;;;;7.84;100.00;102483.41;6250706;28;20046;-76
2021/12/15 03:04:13;;;;;;;21.58;7.85;;;;;;;7.88;100.00;102489.47;6250262;28;20390;-77
2021/12/15 03:07:27;;;;;;;19.85;6.38;;;;;;;7.88;100.00;102487.72;6250620;28;20405;-76
2021/12/15 03:17:07;;;;;;;20.15;6.88;;;;;;;7.89;100.00;102489.44;6253652;28;20046;-76
2021/12/15 03:20:11;;;;;;;20.27;8.23;;;;;;;7.96;100.00;102474.53;6258572;28;20049;-76
2021/12/15 03:23:17;;;;;;;19.42;8.02;;;;;;;7.98;100.00;102479.72;6265408;28;20052;-76
2021/12/15 03:26:25;;;;;;;19.63;7.57;;;;;;;7.99;100.00;102484.06;6275120;28;20056;-77
2021/12/15 03:36:13;;;;;;;20.65;7.97;;;;;;;7.97;100.00;102478.00;6274845;28;20052;-77
2021/12/15 03:39:15;;;;;;;19.88;7.45;;;;;;;8.00;100.00;102478.81;6274735;28;20143;-76
2021/12/15 03:42:20;;;;;;;22.83;7.20;;;;;;;8.08;100.00;102473.44;6274368;28;20052;-76
2021/12/15 03:45:26;;;;;;;18.08;7.05;;;;;;;8.02;100.00;102486.66;6269638;28;20045;-76
2021/12/15 03:48:32;;;;;;;25.25;7.63;;;;;;;8.02;100.00;102487.50;6249733;28;20140;-76
2021/12/15 03:51:33;;;;;;;23.52;7.53;;;;;;;8.03;100.00;102483.13;6249632;28;20049;-77
2021/12/15 03:54:36;;;;;;;19.10;7.13;;;;;;;8.01;100.00;102482.31;6249343;28;20053;-77
2021/12/15 03:57:38;;;;;;;20.20;7.47;;;;;;;8.03;100.00;102486.63;6249768;28;20057;-76
2021/12/15 04:00:43;;;;;;;25.30;8.52;;;;;;;8.04;100.00;102479.63;6248514;28;20052;-76
2021/12/15 04:03:47;;;;;;;17.73;6.80;;;;;;;8.03;100.00;102473.53;6249607;28;20041;-76
2021/12/15 04:06:49;;;;;;;21.88;7.57;;;;;;;8.04;100.00;102479.63;6249227;28;20049;-76
2021/12/15 04:09:53;;;;;;;18.40;6.82;;;;;;;8.05;100.00;102479.63;6248723;28;20493;-76
2021/12/15 04:12:54;;;;;;;24.20;8.25;;;;;;;8.02;100.00;102487.50;6248877;28;20042;-77
2021/12/15 04:15:57;;;;;;;26.73;8.27;;;;;;;8.05;100.00;102490.09;6255834;28;20057;-76
2021/12/15 04:18:59;;;;;;;17.65;6.65;;;;;;;8.03;100.00;102489.22;6264755;28;20052;-76
2021/12/15 04:22:02;;;;;;;17.88;5.85;;;;;;;8.08;100.00;102489.16;6273353;28;20401;-76
2021/12/15 04:25:10;;;;;;;26.10;7.18;;;;;;;8.06;100.00;102497.06;6273672;28;20428;-76
2021/12/15 04:28:16;;;;;;;21.75;6.25;;;;;;;8.07;100.00;102504.00;6273452;28;20044;-76
2021/12/15 04:31:21;;;;;;;17.95;5.90;;;;;;;8.06;100.00;102502.28;6272489;28;20053;-76
2021/12/15 04:34:23;;;;;;;17.38;6.95;;;;;;;8.06;100.00;102506.66;6248216;28;20516;-77
2021/12/15 04:37:25;;;;;;;18.83;6.72;;;;;;;8.07;100.00;102501.38;6247977;28;20049;-76
2021/12/15 04:40:28;;;;;;;18.27;6.72;;;;;;;8.10;100.00;102503.13;6248637;28;20045;-76
2021/12/15 04:43:33;;;;;;;20.88;7.10;;;;;;;8.09;100.00;102504.88;6248104;28;20124;-77
2021/12/15 04:46:37;;;;;;;21.52;6.18;;;;;;;8.09;100.00;102502.25;6248316;28;20736;-76
2021/12/15 04:49:42;;;;;;;20.95;7.70;;;;;;;8.09;100.00;102506.63;6248477;28;20599;-76
2021/12/15 04:52:44;;;;;;;18.13;6.40;;;;;;;8.10;100.00;102501.34;6248096;28;20058;-76
2021/12/15 04:55:47;;;;;;;17.67;7.25;;;;;;;8.10;100.00;102503.13;6247595;28;20493;-76
2021/12/15 04:58:49;;;;;;;20.30;6.38;;;;;;;8.10;100.00;102506.59;6247569;28;20436;-77
2021/12/15 05:01:51;;;;;;;16.27;6.20;;;;;;;8.13;100.00;102509.19;6223580;28;20050;-76
2021/12/15 05:04:53;;;;;;;17.15;5.47;;;;;;;8.10;100.00;102503.13;6223361;28;20057;-77
2021/12/15 05:07:56;;;;;;;19.13;7.93;;;;;;;8.12;100.00;102512.66;6222541;28;20449;-76
2021/12/15 05:10:59;;;;;;;16.42;6.05;;;;;;;8.16;100.00;102517.88;6222719;28;20421;-76
2021/12/15 05:14:01;;;;;;;18.80;5.95;;;;;;;8.16;100.00;102515.25;6223190;28;20124;-76
2021/12/15 05:17:04;;;;;;;17.20;6.75;;;;;;;8.16;100.00;102521.34;6223259;28;20394;-76
2021/12/15 05:20:08;;;;;;;15.27;7.05;;;;;;;8.13;100.00;102530.13;6222806;28;20508;-76
2021/12/15 05:23:11;;;;;;;21.67;8.00;;;;;;;8.16;100.00;102526.59;6223422;28;20141;-76
2021/12/15 05:26:14;;;;;;;19.55;7.30;;;;;;;8.14;100.00;102525.75;6229675;28;20050;-76
2021/12/15 05:29:15;;;;;;;23.40;8.95;;;;;;;8.16;100.00;102528.34;6247494;28;20056;-76
2021/12/15 05:32:18;;;;;;;18.98;7.13;;;;;;;8.16;100.00;102523.97;6247131;28;20054;-76
2021/12/15 05:35:21;;;;;;;21.08;7.45;;;;;;;8.19;100.00;102531.78;6247656;28;20050;-76
2021/12/15 05:38:23;;;;;;;20.02;6.25;;;;;;;8.18;100.00;102524.81;6247286;28;20140;-76
2021/12/15 05:41:26;;;;;;;19.58;8.13;;;;;;;8.16;100.00;102539.69;6247491;28;20053;-76
2021/12/15 05:44:28;;;;;;;16.48;6.32;;;;;;;8.15;100.00;102535.34;6247135;28;20052;-76
2021/12/15 05:47:29;;;;;;;19.15;7.18;;;;;;;8.13;100.00;102539.75;6247099;28;20455;-76
2021/12/15 05:50:31;;;;;;;14.95;5.28;;;;;;;8.08;100.00;102544.16;6246995;28;20064;-75
2021/12/15 05:53:33;;;;;;;14.25;6.55;;;;;;;8.06;100.00;102545.94;6246950;28;20046;-75
2021/12/15 05:56:36;;;;;;;13.45;5.60;;;;;;;8.04;100.00;102550.31;6246664;28;20041;-76
2021/12/15 05:59:37;;;;;;;13.05;5.97;;;;;;;8.03;100.00;102552.06;6247031;28;20053;-75
2021/12/15 06:02:39;;;;;;;16.00;6.75;;;;;;;8.01;100.00;102547.75;6245493;28;20041;-75
2021/12/15 06:05:41;;;;;;;21.45;6.78;;;;;;;7.99;100.00;102552.13;6246564;28;20056;-74
2021/12/15 06:08:42;;;;;;;17.40;5.68;;;;;;;7.98;100.00;102553.03;6246623;28;20053;-75
2021/12/15 06:11:48;;;;;;;18.08;6.57;;;;;;;7.99;100.00;102547.75;6246539;28;20049;-74
2021/12/15 06:14:50;;;;;;;15.25;5.93;;;;;;;7.99;100.00;102557.38;6256806;28;20041;-75
2021/12/15 06:17:55;;;;;;;22.40;6.47;;;;;;;8.01;100.00;102555.63;6256909;28;20390;-75
2021/12/15 06:20:57;;;;;;;20.77;7.20;;;;;;;7.98;100.00;102551.28;6259193;28;20041;-75
2021/12/15 06:23:58;;;;;;;17.90;6.88;;;;;;;7.95;100.00;102553.94;6263046;28;20078;-75
2021/12/15 06:27:05;;;;;;;14.88;6.15;;;;;;;7.95;100.00;102556.56;6266056;28;20049;-75
2021/12/15 06:30:08;;;;;;;15.48;6.63;;;;;;;7.95;100.00;102556.56;6246341;28;20049;-76
2021/12/15 06:33:09;;;;;;;19.88;7.63;;;;;;;7.94;100.00;102551.31;6245689;28;20046;-74
2021/12/15 06:36:13;;;;;;;19.02;6.38;;;;;;;7.93;100.00;102562.69;6254316;28;20045;-75
2021/12/15 06:39:16;;;;;;;15.95;7.00;;;;;;;7.96;100.00;102558.28;6261945;28;20049;-75
2021/12/15 06:42:18;;;;;;;14.23;6.78;;;;;;;7.94;100.00;102575.75;6270703;28;20057;-75
2021/12/15 06:45:24;;;;;;;20.17;6.95;;;;;;;7.94;100.00;102570.53;6270837;28;20049;-75
2021/12/15 06:58:27;;;;;;;22.30;7.18;;;;;;;7.93;100.00;102570.53;6247321;28;20045;-75
2021/12/15 07:01:28;;;;;;;22.90;7.55;;;;;;;7.92;100.00;102574.06;6245894;28;20501;-75
2021/12/15 07:04:30;;;;;;;18.13;6.53;;;;;;;7.89;100.00;102578.44;6245894;28;20045;-75
2021/12/15 07:07:31;;;;;;;26.77;7.65;;;;;;;7.95;100.00;102595.84;6246157;28;20053;-75
2021/12/15 07:10:37;;;;;;;28.17;7.22;;;;;;;7.94;100.00;102596.69;6245502;28;20506;-75
2021/12/15 07:13:40;;;;;;;23.08;8.23;;;;;;;7.94;100.00;102599.31;6245562;28;20547;-75
2021/12/15 07:16:44;;;;;;;13.35;6.78;;;;;;;7.96;100.00;102592.31;6244582;28;20045;-75
2021/12/15 07:20:05;;;;;;;18.23;7.35;;;;;;;7.95;100.00;102595.84;6245758;28;20046;-75
2021/12/15 07:23:09;;;;;;;19.98;7.53;;;;;;;7.96;100.00;102591.47;6246843;28;20041;-75
2021/12/15 07:26:10;;;;;;;19.55;7.15;;;;;;;7.95;100.00;102603.69;6248345;28;20439;-75
2021/12/15 07:29:13;;;;;;;26.30;7.78;;;;;;;7.97;100.00;102601.91;6248246;28;20061;-75
2021/12/15 07:32:14;;;;;;;20.08;6.20;;;;;;;7.96;100.00;102608.03;6248551;28;20053;-75
2021/12/15 07:35:18;;;;;;;15.38;6.70;;;;;;;7.98;100.00;102615.84;6248629;28;20049;-74
2021/12/15 07:38:20;;;;;;;19.40;7.38;;;;;;;7.99;100.00;102610.59;6246201;28;20045;-75
2021/12/15 07:41:27;;;;;;;18.13;6.55;;;;;;;8.00;100.00;102614.09;6248084;28;20048;-76
2021/12/15 07:44:30;;;;;;;20.83;7.18;;;;;;;8.02;100.00;102612.31;6248346;28;20123;-75
2021/12/15 07:47:32;;;;;;;20.15;7.65;;;;;;;8.02;100.00;102613.19;6246247;28;20053;-75
2021/12/15 07:50:35;;;;;;;19.48;7.32;;;;;;;8.00;100.00;102617.59;6246005;28;20058;-76
2021/12/15 07:53:39;;;;;;;22.33;7.53;;;;;;;8.02;100.00;102620.16;6266051;28;20052;-76
2021/12/15 07:56:42;;;;;;;19.00;7.25;;;;;;;8.04;100.00;102628.84;6247008;28;20045;-76
2021/12/15 07:59:44;;;;;;;22.23;7.88;;;;;;;8.03;100.00;102630.63;6249722;28;20150;-76
2021/12/15 08:02:46;;;;;;;19.15;7.03;;;;;;;8.04;100.00;102631.47;6249169;28;20049;-76
2021/12/15 08:05:49;;;;;;;23.20;7.72;;;;;;;8.03;100.00;102635.00;6249727;28;20062;-77
2021/12/15 08:08:51;;;;;;;18.83;8.27;;;;;;;8.02;100.00;102635.88;6247531;28;20050;-76
2021/12/15 08:11:54;;;;;;;20.33;7.88;;;;;;;8.05;100.00;102628.00;6248019;28;20072;-77
2021/12/15 08:14:56;;;;;;;19.73;7.60;;;;;;;8.06;100.00;102632.34;6257605;28;20049;-76
2021/12/15 08:17:58;;;;;;;22.10;8.15;;;;;;;8.07;100.00;102631.44;6256122;28;20052;-77
2021/12/15 08:21:00;;;;;;;23.98;8.75;;;;;;;8.07;100.00;102629.69;6262150;28;20053;-76
2021/12/15 08:24:02;;;;;;;23.77;8.00;;;;;;;8.08;100.00;102633.19;6273688;28;20500;-75
2021/12/15 08:27:04;;;;;;;19.55;7.40;;;;;;;8.05;100.00;102634.09;6263889;28;20057;-76
2021/12/15 08:30:11;;;;;;;23.17;8.57;;;;;;;8.05;100.00;102634.09;6248147;28;20532;-75
2021/12/15 08:33:17;;;;;;;20.65;8.25;;;;;;;8.06;100.00;102632.34;6248419;28;20046;-76
2021/12/15 08:36:18;;;;;;;16.00;7.45;;;;;;;8.07;100.00;102634.94;6248582;28;20111;-75
2021/12/15 08:39:19;;;;;;;16.98;7.32;;;;;;;8.07;100.00;102634.94;6256533;28;20056;-76
2021/12/15 08:42:21;;;;;;;21.45;8.40;;;;;;;8.07;100.00;102637.56;6248211;28;20428;-76
2021/12/15 08:45:25;;;;;;;24.80;9.27;;;;;;;8.05;100.00;102639.34;6248326;28;20049;-75
2021/12/15 08:48:26;;;;;;;19.67;8.02;;;;;;;8.03;100.00;102648.94;6248258;28;20060;-76
2021/12/15 08:51:29;;;;;;;25.05;8.25;;;;;;;8.05;100.00;102646.31;6248227;28;20049;-75
2021/12/15 08:54:30;;;;;;;16.10;7.88;;;;;;;8.04;100.00;102645.47;6247785;28;20492;-75
2021/12/15 08:57:32;;;;;;;23.88;8.55;;;;;;;8.04;100.00;102650.69;6248047;28;20049;-75
2021/12/15 09:00:35;;;;;;;24.63;8.82;;;;;;;8.10;100.00;102652.38;6247713;28;20068;-76
2021/12/15 09:03:39;;;;;;;24.30;9.90;;;;;;;8.06;100.00;102654.16;6248269;28;20048;-76
2021/12/15 09:06:41;;;;;;;25.73;10.35;;;;;;;8.08;100.00;102651.50;6247959;28;20045;-76
2021/12/15 09:09:43;;;;;;;16.70;7.65;;;;;;;8.10;100.00;102655.00;6248100;28;20053;-76
2021/12/15 09:12:44;;;;;;;21.92;9.05;;;;;;;8.07;100.00;102663.72;6247657;28;20057;-76
2021/12/15 09:15:47;;;;;;;18.73;9.18;;;;;;;8.09;100.00;102663.75;6250508;28;20041;-77
2021/12/15 09:18:50;;;;;;;27.63;8.77;;;;;;;8.08;100.00;102665.50;6259812;28;20112;-77
2021/12/15 09:21:52;;;;;;;24.52;9.68;;;;;;;8.11;100.00;102659.34;6260242;28;20049;-78
2021/12/15 09:24:53;;;;;;;23.50;8.23;;;;;;;8.12;100.00;102664.53;6262706;28;20046;-78
2021/12/15 09:27:58;;;;;;;22.27;8.68;;;;;;;8.14;100.00;102664.53;6249356;28;20053;-77
2021/12/15 09:31:01;;;;;;;19.60;8.52;;;;;;;8.15;100.00;102666.28;6247569;28;20149;-77
2021/12/15 09:34:04;;;;;;;22.17;10.05;;;;;;;8.15;100.00;102671.50;6246242;28;20048;-77
2021/12/15 09:37:05;;;;;;;25.40;8.68;;;;;;;8.16;100.00;102672.38;6246145;28;20464;-77
2021/12/15 09:40:10;;;;;;;23.70;8.75;;;;;;;8.20;100.00;102674.06;6246617;28;20049;-77
2021/12/15 09:43:12;;;;;;;22.67;8.73;;;;;;;8.18;100.00;102666.25;6246622;28;20049;-78
2021/12/15 09:46:27;;;;;;;20.65;7.38;;;;;;;8.19;100.00;102661.88;6238778;28;20053;-76
2021/12/15 09:56:49;;;;;;;19.63;8.13;;;;;;;8.21;100.00;102666.19;6258941;28;20044;-77
2021/12/15 10:03:15;;;;;;;;;;;;;;;8.21;100.00;102670.56;6272404;28;20132;-77
2021/12/15 10:06:28;;;;;;;18.85;8.40;;;;;;;8.23;100.00;102671.41;6271769;28;20399;-76
2021/12/15 10:19:43;;;;;;;25.15;9.82;;;;;;;8.30;100.00;102670.44;6249080;28;20508;-76
2021/12/15 10:22:47;;;;;;;19.35;8.30;;;;;;;8.30;100.00;102676.53;6246596;28;20049;-75
2021/12/15 10:25:49;;;;;;;17.85;7.78;;;;;;;8.32;100.00;102666.06;6254254;28;20053;-77
2021/12/15 10:28:52;;;;;;;18.85;8.70;;;;;;;8.33;100.00;102668.66;6267365;28;20179;-77
2021/12/15 10:32:01;;;;;;;19.27;7.88;;;;;;;8.34;100.00;102680.84;6263375;28;20042;-76
2021/12/15 10:35:09;;;;;;;21.33;9.82;;;;;;;8.36;100.00;102680.84;6246262;28;20049;-75
2021/12/15 10:38:18;;;;;;;24.98;8.57;;;;;;;8.36;100.00;102673.00;6254637;28;20049;-76
2021/12/15 10:41:24;;;;;;;20.48;8.02;;;;;;;8.40;100.00;102679.94;6244643;28;20428;-77
2021/12/15 10:44:28;;;;;;;18.98;7.95;;;;;;;8.46;100.00;102673.78;6242092;28;20045;-76
2021/12/15 10:47:30;;;;;;;18.27;7.75;;;;;;;8.46;100.00;102666.78;6245339;28;20451;-76
2021/12/15 10:50:37;;;;;;;18.92;7.82;;;;;;;8.48;100.00;102666.75;6244757;28;20049;-75
2021/12/15 10:53:39;;;;;;;20.00;8.38;;;;;;;8.52;100.00;102664.06;6242844;28;20050;-76
2021/12/15 10:56:48;;;;;;;17.15;7.63;;;;;;;8.50;100.00;102659.75;6250757;28;20056;-76
2021/12/15 10:59:52;;;;;;;21.00;9.52;;;;;;;8.51;100.00;102664.94;6248953;28;20050;-75
2021/12/15 11:03:03;;;;;;;20.75;7.65;;;;;;;8.52;100.00;102660.56;6255496;28;20724;-76
2021/12/15 11:06:23;;;;;;;17.25;8.30;;;;;;;8.52;100.00;102656.19;6247919;28;20057;-76
2021/12/15 11:09:24;;;;;;;18.52;8.80;;;;;;;8.54;100.00;102654.44;6248847;28;20053;-76
2021/12/15 11:12:29;;;;;;;22.92;9.07;;;;;;;8.58;100.00;102650.88;6250227;28;20045;-76
2021/12/15 11:15:33;;;;;;;20.40;7.60;;;;;;;8.60;100.00;102659.59;6250046;28;20436;-75
2021/12/15 11:18:36;;;;;;;18.67;7.53;;;;;;;8.54;100.00;102654.44;6249315;28;20081;-76
2021/12/15 11:21:38;;;;;;;18.70;8.07;;;;;;;8.55;100.00;102660.53;6249819;28;20049;-76
2021/12/15 11:24:40;;;;;;;23.77;7.57;;;;;;;8.55;100.00;102665.78;6250263;28;20050;-76
2021/12/15 11:27:41;;;;;;;18.63;7.20;;;;;;;8.57;100.00;102664.84;6251513;28;20063;-75
2021/12/15 11:30:48;;;;;;;17.17;8.75;;;;;;;8.62;100.00;102670.03;6260545;28;20106;-75
2021/12/15 11:33:52;;;;;;;16.77;7.03;;;;;;;8.60;100.00;102662.19;6258438;28;20057;-76
2021/12/15 11:36:55;;;;;;;14.80;7.57;;;;;;;8.55;100.00;102655.31;6247826;28;20045;-77
2021/12/15 11:40:02;;;;;;;19.00;7.88;;;;;;;8.57;100.00;102659.63;6236658;28;20068;-76
2021/12/15 11:43:05;;;;;;;19.00;8.23;;;;;;;8.64;100.00;102658.66;6249872;28;20068;-75
2021/12/15 11:46:17;;;;;;;15.30;6.60;;;;;;;8.61;100.00;102669.16;6249713;28;20413;-76
2021/12/15 11:49:20;;;;;;;17.50;7.70;;;;;;;8.61;100.00;102663.06;6262631;28;20424;-77
2021/12/15 11:52:23;;;;;;;17.88;7.47;;;;;;;8.62;100.00;102662.16;6253638;28;20492;-76
2021/12/15 11:55:28;;;;;;;15.75;7.53;;;;;;;8.61;100.00;102666.56;6250770;28;20048;-76
2021/12/15 11:58:31;;;;;;;17.35;7.13;;;;;;;8.64;100.00;102656.03;6260907;28;20139;-76
2021/12/15 12:02:01;;;;;;;15.40;6.47;;;;;;;8.67;100.00;102655.09;6249469;28;20497;-75
2021/12/15 12:05:06;;;;;;;19.75;6.45;;;;;;;8.66;100.00;102650.75;6247353;28;20042;-76
2021/12/15 12:08:12;;;;;;;20.88;7.63;;;;;;;8.67;100.00;102654.25;6249102;28;20497;-76
2021/12/15 12:11:15;;;;;;;18.23;7.47;;;;;;;8.69;100.00;102652.47;6249243;28;20061;-75
2021/12/15 12:14:37;;;;;;;18.08;8.13;;;;;;;8.69;100.00;102649.84;6256303;28;20412;-76
2021/12/15 12:17:40;;;;;;;15.35;7.57;;;;;;;8.67;100.00;102652.47;6260079;28;20053;-75
2021/12/15 12:20:45;;;;;;;20.98;8.07;;;;;;;8.70;100.00;102648.97;6265136;28;20052;-77
2021/12/15 12:23:49;;;;;;;17.05;7.05;;;;;;;8.71;100.00;102641.06;6260083;28;20045;-77
2021/12/15 12:26:51;;;;;;;16.25;7.75;;;;;;;8.73;100.00;102647.16;6263376;28;20060;-76
2021/12/15 12:29:55;;;;;;;19.50;7.32;;;;;;;8.72;100.00;102647.16;6248163;28;20061;-77
2021/12/15 12:32:57;;;;;;;18.63;6.80;;;;;;;8.77;100.00;102637.50;6248992;28;20060;-76
2021/12/15 12:36:04;;;;;;;22.63;8.70;;;;;;;8.79;100.00;102638.34;6259487;28;20476;-76
2021/12/15 12:39:10;;;;;;;13.27;6.82;;;;;;;8.84;100.00;102641.75;6253741;28;20119;-76
2021/12/15 12:42:28;;;;;;;20.05;6.93;;;;;;;8.81;100.00;102644.41;6248335;28;20049;-77
2021/12/15 12:45:36;;;;;;;17.95;6.43;;;;;;;8.79;100.00;102633.09;6246126;28;20524;-77
2021/12/15 12:48:53;;;;;;;16.93;7.10;;;;;;;8.78;100.00;102631.38;6249375;28;20052;-77
2021/12/15 13:02:05;;;;;;;16.90;7.05;;;;;;;8.75;100.00;102628.78;6223496;28;20054;-77
2021/12/15 13:05:25;;;;;;;17.25;7.57;;;;;;;8.74;100.00;102622.69;6223651;28;20046;-77
2021/12/15 13:08:38;;;;;;;23.65;7.03;;;;;;;8.75;100.00;102619.16;6230307;28;20075;-74
2021/12/15 13:11:43;;;;;;;15.43;6.03;;;;;;;8.78;100.00;102626.13;6247616;28;20060;-75
2021/12/15 13:14:44;;;;;;;20.05;7.78;;;;;;;8.84;100.00;102640.00;6247710;28;20191;-74
2021/12/15 13:17:59;;;;;;;26.02;7.88;;;;;;;8.86;100.00;102627.75;6247207;28;20053;-73
2021/12/15 13:21:06;;;;;;;16.30;6.35;;;;;;;8.80;100.00;102622.56;6247303;28;20097;-74
2021/12/15 13:28:42;;;;;;;17.92;7.15;;;;;;;8.84;100.00;102620.78;6247820;28;20057;-77
2021/12/15 13:31:28;;;;;;;17.27;7.13;;;;;;;8.77;100.00;102632.28;6247203;28;20061;-76
2021/12/15 13:34:40;;;;;;;19.90;7.82;;;;;;;8.78;100.00;102629.63;6247540;28;20050;-77
2021/12/15 13:37:57;;;;;;;21.00;7.72;;;;;;;8.77;100.00;102633.13;6247234;28;20057;-78
2021/12/15 13:41:19;;;;;;;16.00;7.10;;;;;;;8.80;100.00;102648.78;6247577;28;20053;-76
2021/12/15 13:44:29;;;;;;;18.80;7.50;;;;;;;8.77;100.00;102643.63;6247550;28;20064;-77
2021/12/15 13:47:31;;;;;;;15.82;7.28;;;;;;;8.82;100.00;102633.06;6247430;28;20045;-77
2021/12/15 13:50:33;;;;;;;16.30;7.25;;;;;;;8.83;100.00;102632.16;6246574;28;20045;-77
2021/12/15 13:53:35;;;;;;;20.30;8.23;;;;;;;8.83;100.00;102633.03;6247234;28;20050;-77
2021/12/15 13:56:47;;;;;;;16.00;7.65;;;;;;;8.83;100.00;102626.91;6233870;28;20054;-76
2021/12/15 14:00:07;;;;;;;17.05;6.82;;;;;;;8.84;100.00;102629.50;6246825;28;20053;-76
2021/12/15 14:03:17;;;;;;;17.02;6.07;;;;;;;8.80;100.00;102630.44;6247163;28;20049;-77
2021/12/15 14:06:23;;;;;;;17.98;7.07;;;;;;;8.78;100.00;102623.50;6247194;28;20065;-77
2021/12/15 14:09:31;;;;;;;15.98;6.90;;;;;;;8.82;100.00;102630.44;6246569;28;20132;-77
2021/12/15 14:12:53;;;;;;;17.40;6.53;;;;;;;8.80;100.00;102619.94;6246612;28;20459;-77
2021/12/15 14:15:55;;;;;;;18.55;7.32;;;;;;;8.76;100.00;102627.88;6256558;28;20038;-77
2021/12/15 14:18:58;;;;;;;15.93;7.10;;;;;;;8.73;100.00;102626.19;6257998;28;20044;-76
2021/12/15 14:22:03;;;;;;;19.42;6.78;;;;;;;8.74;100.00;102625.31;6263151;28;20500;-77
2021/12/15 14:25:05;;;;;;;18.73;7.65;;;;;;;8.71;100.00;102634.97;6271420;28;20527;-77
2021/12/15 14:28:08;;;;;;;22.95;6.70;;;;;;;8.74;100.00;102620.06;6249358;28;20049;-76
2021/12/15 14:31:15;;;;;;;21.17;7.13;;;;;;;8.72;100.00;102629.72;6251249;28;20060;-76
2021/12/15 14:34:20;;;;;;;18.38;6.95;;;;;;;8.69;100.00;102628.88;6251618;28;20065;-77
2021/12/15 14:37:22;;;;;;;18.38;7.20;;;;;;;8.70;100.00;102625.38;6251640;28;20053;-77
2021/12/15 14:40:23;;;;;;;21.13;7.50;;;;;;;8.71;100.00;102625.34;6251660;28;20052;-77
2021/12/15 14:43:25;;;;;;;25.65;7.95;;;;;;;8.70;100.00;102633.25;6267958;28;20053;-77
2021/12/15 14:46:30;;;;;;;17.40;6.82;;;;;;;8.70;100.00;102630.63;6264632;28;20068;-77
2021/12/15 14:49:34;;;;;;;17.23;6.65;;;;;;;8.66;100.00;102627.16;6251645;28;20061;-77
2021/12/15 14:52:38;;;;;;;22.17;7.43;;;;;;;8.64;100.00;102637.69;6251027;28;20481;-77
2021/12/15 14:55:40;;;;;;;18.42;7.10;;;;;;;8.63;100.00;102637.72;6267428;28;20045;-76
2021/12/15 14:58:41;;;;;;;22.15;6.18;;;;;;;8.61;100.00;102640.34;6251009;28;20053;-76
2021/12/15 15:01:45;;;;;;;16.38;6.70;;;;;;;8.60;100.00;102645.63;6250950;28;20049;-76
2021/12/15 15:04:49;;;;;;;17.52;6.93;;;;;;;8.61;100.00;102647.34;6250833;28;20049;-76
2021/12/15 15:07:53;;;;;;;20.27;8.15;;;;;;;8.63;100.00;102656.94;6251081;28;20064;-77
2021/12/15 15:10:58;;;;;;;17.73;6.97;;;;;;;8.60;100.00;102648.25;6250623;28;20057;-76
2021/12/15 15:14:00;;;;;;;18.23;7.22;;;;;;;8.60;100.00;102649.09;6250625;28;20057;-76
2021/12/15 15:17:04;;;;;;;16.45;6.63;;;;;;;8.62;100.00;102646.44;6255833;28;20045;-77